Hlavní strana
METAR-TAF:

METAR-TAF

Letiště :

Halmstad, Švédsko

zeměpisná šířka: 56-41N, zeměpisná délka: 012-50E, výška: 30 m

Aktuální stav počasí

Zpráva byla vytvořena před 18 minutami, v 02:50 UTC
Východní vítr 11 kt
Teplota 7°C
Vlhkost vzduchu 81%
Tlak 1011 hPa
Viditelnost 10 km a více

METAR: ESMT 180250Z AUTO 10011KT 9999 FEW016/// 07/04 Q1011

Čas: 04:08 (03:08 UTC)

Předpověď počasí

Zpráva byla vytvořena před 9 hodinami a 54 minutami, v 17:14 UTC
Předpověď platná od 17 v 18 UTC do 17 v 22 UTC
Východoseverovýchodní vítr 6 kt
Viditelnost: 7000 m
Polojasno ve výšce 1000 ft

TAF: ESMT 171714Z 1718/1722 06006KT 7000 SCT010

Stav a předpovědi počasí z více než 4 000 letišť (zprávy METAR a TAF).

Červené a žluté tečky na mapě představují dostupné meteorologické stanice.

Když kurzor umístíte na tečku, zobrazí se název stanice.

Pak kliknutím zobrazíte stav a předpověď počasí.

Chcete-li změnit mapu, kliknutím na zelené tlačítko se znaménkem +mapu přiblížíte, kliknutím na zelené tlačítko se znaménkem – mapu oddálíte a kliknutím na zelené šipky přejdete na sousední mapy.


METAR-TAF: